Time;durP1;ratioP1;P1;durP2;ratioP2;P2;SDS_P1;SDS_P2;PMS_P1;PMS_P2;Temp;Humidity;BMP_temperature;BMP_pressure;BME280_temperature;BME280_humidity;BME280_pressure;Samples;Min_cycle;Max_cycle;Signal;HPM_P1;HPM_P2
2021/09/03 00:00:18;;;;;;;3.05;1.98;;;12.80;76.40;;;;;;5033200;28;20522;-71
2021/09/03 00:02:44;;;;;;;1.88;1.52;;;12.70;76.30;;;;;;5032839;28;20466;-71
2021/09/03 00:05:14;;;;;;;2.70;1.20;;;12.70;76.40;;;;;;5037885;28;20116;-72
2021/09/03 00:07:40;;;;;;;3.50;1.23;;;12.70;76.70;;;;;;5032458;28;20040;-71
2021/09/03 00:10:07;;;;;;;3.20;1.67;;;12.70;76.80;;;;;;5039267;28;20083;-71
2021/09/03 00:12:33;;;;;;;1.73;1.58;;;12.70;76.70;;;;;;5034018;28;20033;-71
2021/09/03 00:14:59;;;;;;;3.22;1.92;;;12.80;76.70;;;;;;5032583;28;20476;-71
2021/09/03 00:17:25;;;;;;;5.32;2.00;;;12.70;76.60;;;;;;5046872;28;20029;-71
2021/09/03 00:19:51;;;;;;;3.17;1.77;;;12.70;76.60;;;;;;5054687;28;20032;-70
2021/09/03 00:22:17;;;;;;;2.50;1.88;;;12.60;76.90;;;;;;5040889;28;20034;-71
2021/09/03 00:24:43;;;;;;;4.65;2.10;;;12.60;77.10;;;;;;5032788;28;20030;-71
2021/09/03 00:27:09;;;;;;;5.40;2.00;;;12.50;77.40;;;;;;5034024;28;20040;-71
2021/09/03 00:29:35;;;;;;;3.47;1.80;;;12.40;77.70;;;;;;5033410;28;20119;-71
2021/09/03 00:32:01;;;;;;;3.17;1.83;;;12.30;77.80;;;;;;5033615;28;20470;-72
2021/09/03 00:34:26;;;;;;;3.25;2.10;;;12.30;77.90;;;;;;5033770;28;20475;-72
2021/09/03 00:36:52;;;;;;;3.80;2.20;;;12.30;78.00;;;;;;5033435;28;20026;-71
2021/09/03 00:39:18;;;;;;;3.72;2.10;;;12.30;78.10;;;;;;5033870;28;20071;-70
2021/09/03 00:41:43;;;;;;;2.70;1.90;;;12.20;78.10;;;;;;5033630;28;20095;-71
2021/09/03 00:44:09;;;;;;;4.00;2.00;;;12.10;78.30;;;;;;5032233;28;20080;-71
2021/09/03 00:46:35;;;;;;;3.88;2.00;;;12.00;78.50;;;;;;5033570;28;20033;-71
2021/09/03 00:49:01;;;;;;;3.53;2.08;;;11.90;78.70;;;;;;5047497;28;20033;-72
2021/09/03 00:51:26;;;;;;;6.13;2.40;;;11.90;78.90;;;;;;5052202;28;20028;-71
2021/09/03 00:53:52;;;;;;;3.30;2.22;;;11.80;79.10;;;;;;5053048;28;20040;-71
2021/09/03 00:56:18;;;;;;;4.13;2.17;;;11.70;79.40;;;;;;5053168;28;20040;-71
2021/09/03 00:58:44;;;;;;;3.53;1.92;;;11.70;79.80;;;;;;5042834;28;20036;-71
2021/09/03 01:01:09;;;;;;;3.17;2.10;;;11.60;80.10;;;;;;5037552;28;20022;-71
2021/09/03 01:03:35;;;;;;;4.85;2.08;;;11.50;80.50;;;;;;5036925;28;20037;-72
2021/09/03 01:06:04;;;;;;;3.30;2.05;;;11.50;80.80;;;;;;5036161;28;20057;-72
2021/09/03 01:08:30;;;;;;;4.95;2.40;;;11.40;81.10;;;;;;5040615;28;20379;-71
2021/09/03 01:10:55;;;;;;;3.85;2.10;;;11.30;81.40;;;;;;5037296;28;20494;-71
2021/09/03 01:13:21;;;;;;;3.78;2.17;;;11.40;81.60;;;;;;5035988;28;20029;-71
2021/09/03 01:15:47;;;;;;;4.55;2.10;;;11.40;81.60;;;;;;5037007;28;20079;-71
2021/09/03 01:18:12;;;;;;;4.75;2.03;;;11.40;81.50;;;;;;5052221;28;20049;-72
2021/09/03 01:20:38;;;;;;;4.30;2.45;;;11.40;81.50;;;;;;5057165;28;20025;-71
2021/09/03 01:23:04;;;;;;;5.20;2.35;;;11.50;81.50;;;;;;5055793;28;20375;-71
2021/09/03 01:25:30;;;;;;;4.15;2.45;;;11.50;81.30;;;;;;5056768;28;20017;-71
2021/09/03 01:27:55;;;;;;;3.17;2.03;;;11.50;81.20;;;;;;5044487;28;20033;-71
2021/09/03 01:30:21;;;;;;;3.95;2.00;;;11.50;81.30;;;;;;5036991;28;20059;-72
2021/09/03 01:32:49;;;;;;;2.90;2.00;;;11.40;81.30;;;;;;5043888;28;20041;-72
2021/09/03 01:35:15;;;;;;;4.28;2.45;;;11.50;81.30;;;;;;5056771;28;20032;-71
2021/09/03 01:37:40;;;;;;;4.20;2.20;;;11.40;81.40;;;;;;5046277;28;20029;-71
2021/09/03 01:40:07;;;;;;;5.22;2.28;;;11.40;81.40;;;;;;5048670;28;20052;-71
2021/09/03 01:42:33;;;;;;;2.85;2.10;;;11.40;81.40;;;;;;5048918;28;20151;-71
2021/09/03 01:44:58;;;;;;;3.83;2.30;;;11.50;81.30;;;;;;5036559;28;20160;-71
2021/09/03 01:47:24;;;;;;;5.32;2.50;;;11.50;81.20;;;;;;5042466;28;20035;-71
2021/09/03 01:49:50;;;;;;;5.78;3.13;;;11.40;81.10;;;;;;5056502;28;20028;-71
2021/09/03 01:52:15;;;;;;;4.43;2.50;;;11.40;81.20;;;;;;5056662;28;20036;-71
2021/09/03 01:54:41;;;;;;;4.80;2.55;;;11.40;81.30;;;;;;5056470;28;20028;-71
2021/09/03 01:57:07;;;;;;;4.28;2.40;;;11.30;81.30;;;;;;5050509;28;20018;-71
2021/09/03 01:59:32;;;;;;;4.70;2.45;;;11.30;81.40;;;;;;5036862;28;20032;-71
2021/09/03 02:01:58;;;;;;;5.40;2.30;;;11.20;81.50;;;;;;5037068;28;20025;-72
2021/09/03 02:04:24;;;;;;;5.20;2.67;;;11.20;81.80;;;;;;5043726;28;20045;-72
2021/09/03 02:06:49;;;;;;;5.40;2.88;;;11.10;82.00;;;;;;5036300;28;20037;-71
2021/09/03 02:09:15;;;;;;;5.63;2.85;;;11.00;82.20;;;;;;5036303;28;20468;-70
2021/09/03 02:11:41;;;;;;;5.28;2.85;;;11.00;82.70;;;;;;5034982;28;20029;-71
2021/09/03 02:14:06;;;;;;;4.68;2.97;;;10.90;83.00;;;;;;5034610;28;20087;-70
2021/09/03 02:16:32;;;;;;;4.55;2.85;;;10.80;83.60;;;;;;5036511;28;20104;-72
2021/09/03 02:19:01;;;;;;;4.03;2.80;;;10.70;83.90;;;;;;5034892;28;20387;-71
2021/09/03 02:21:26;;;;;;;6.40;2.72;;;10.70;84.10;;;;;;5036364;28;20030;-71
2021/09/03 02:23:53;;;;;;;4.93;2.78;;;10.70;84.20;;;;;;5034892;28;20490;-70
2021/09/03 02:26:18;;;;;;;4.90;2.60;;;10.70;84.30;;;;;;5036019;28;20044;-71
2021/09/03 02:28:44;;;;;;;4.32;2.70;;;10.70;84.30;;;;;;5034462;28;20029;-71
2021/09/03 02:31:10;;;;;;;5.53;2.90;;;10.70;84.40;;;;;;5037728;28;20030;-71
2021/09/03 02:33:36;;;;;;;6.18;2.80;;;10.70;84.10;;;;;;5037231;28;20048;-70
2021/09/03 02:36:02;;;;;;;6.15;3.03;;;10.70;84.10;;;;;;5055816;28;20028;-72
2021/09/03 02:38:28;;;;;;;5.28;3.17;;;10.80;84.00;;;;;;5054259;28;20075;-71
2021/09/03 02:40:53;;;;;;;8.23;3.30;;;10.80;84.50;;;;;;5044174;28;20029;-71
2021/09/03 02:43:19;;;;;;;6.43;3.03;;;10.80;83.90;;;;;;5034162;28;20040;-71
2021/09/03 02:45:45;;;;;;;5.05;2.90;;;10.80;84.00;;;;;;5034467;28;20029;-72
2021/09/03 02:48:11;;;;;;;7.85;4.03;;;10.80;84.00;;;;;;5035343;28;20033;-71
2021/09/03 02:50:36;;;;;;;4.18;2.75;;;10.80;84.10;;;;;;5047479;28;20151;-71
2021/09/03 02:53:02;;;;;;;4.47;2.40;;;10.80;84.30;;;;;;5053613;28;20671;-72
2021/09/03 02:55:28;;;;;;;5.05;3.00;;;10.80;84.20;;;;;;5055376;28;20029;-71
2021/09/03 02:57:55;;;;;;;5.70;3.15;;;10.80;84.00;;;;;;5055364;28;20064;-71
2021/09/03 03:00:21;;;;;;;3.70;2.75;;;10.70;83.90;;;;;;5055193;28;20032;-70
2021/09/03 03:02:47;;;;;;;5.57;2.83;;;10.70;84.20;;;;;;5043459;28;20356;-71
2021/09/03 03:05:13;;;;;;;5.68;2.90;;;10.80;84.10;;;;;;5036020;28;20060;-71
2021/09/03 03:07:38;;;;;;;4.60;2.90;;;10.80;84.10;;;;;;5035100;28;20379;-71
2021/09/03 03:10:06;;;;;;;5.35;3.30;;;10.70;84.10;;;;;;5034783;28;20487;-70
2021/09/03 03:12:32;;;;;;;6.90;3.80;;;10.80;84.10;;;;;;5041083;28;20040;-74
2021/09/03 03:14:58;;;;;;;7.28;3.75;;;10.80;83.90;;;;;;5054051;28;20040;-72
2021/09/03 03:17:24;;;;;;;8.68;4.10;;;10.80;83.90;;;;;;5045549;28;20128;-72
2021/09/03 03:19:49;;;;;;;7.15;3.83;;;10.80;83.90;;;;;;5046685;28;20033;-73
2021/09/03 03:22:16;;;;;;;6.55;4.00;;;10.80;83.90;;;;;;5033062;28;20044;-75
2021/09/03 03:24:44;;;;;;;6.22;3.55;;;10.80;84.00;;;;;;5034157;28;20390;-74
2021/09/03 03:27:10;;;;;;;6.22;3.10;;;10.90;83.90;;;;;;5042653;28;20037;-75
2021/09/03 03:29:36;;;;;;;5.85;3.10;;;10.90;83.90;;;;;;5037576;28;20036;-73
2021/09/03 03:32:03;;;;;;;5.75;3.20;;;10.90;83.90;;;;;;5041852;28;20037;-74
2021/09/03 03:34:28;;;;;;;8.40;3.22;;;11.00;84.10;;;;;;5034877;28;20368;-73
2021/09/03 03:36:54;;;;;;;5.38;3.30;;;11.20;83.80;;;;;;5042757;28;20076;-73
2021/09/03 03:39:20;;;;;;;7.30;3.70;;;11.40;83.50;;;;;;5039420;28;20059;-73
2021/09/03 03:41:45;;;;;;;8.88;3.72;;;11.80;82.70;;;;;;5046049;28;20033;-74
2021/09/03 03:44:11;;;;;;;5.03;3.30;;;12.10;81.90;;;;;;5045833;28;20021;-73
2021/09/03 03:46:37;;;;;;;5.75;3.17;;;12.40;81.00;;;;;;5054326;28;20029;-74
2021/09/03 03:49:03;;;;;;;5.95;2.97;;;12.80;80.10;;;;;;5048532;28;20048;-74
2021/09/03 03:51:28;;;;;;;5.25;3.40;;;13.30;78.80;;;;;;5047830;28;20039;-73
2021/09/03 03:53:54;;;;;;;5.25;2.53;;;13.80;77.30;;;;;;5043479;28;20502;-76
2021/09/03 03:56:19;;;;;;;5.72;2.78;;;14.20;75.80;;;;;;5045449;28;20540;-74
2021/09/03 03:58:45;;;;;;;5.35;2.22;;;14.70;74.00;;;;;;5047868;28;20454;-74
2021/09/03 04:01:12;;;;;;;4.78;2.38;;;15.10;72.40;;;;;;5042297;28;20422;-74
2021/09/03 04:03:38;;;;;;;5.25;2.72;;;15.40;71.20;;;;;;5053712;28;20080;-74
2021/09/03 04:06:04;;;;;;;16.13;10.95;;;15.80;69.70;;;;;;5038682;28;20475;-75
2021/09/03 04:08:30;;;;;;;5.90;2.58;;;16.10;68.40;;;;;;5031656;28;20039;-74
2021/09/03 04:10:56;;;;;;;6.93;3.15;;;16.40;67.50;;;;;;5030606;28;20025;-76
2021/09/03 04:13:21;;;;;;;4.82;2.50;;;16.80;66.60;;;;;;5033408;28;20175;-73
2021/09/03 04:15:47;;;;;;;6.30;2.20;;;16.90;65.30;;;;;;5042575;28;20459;-74
2021/09/03 04:18:13;;;;;;;4.13;2.10;;;17.10;65.00;;;;;;5043507;28;20036;-73
2021/09/03 04:20:38;;;;;;;4.90;2.80;;;17.40;64.10;;;;;;5049507;28;20127;-72
2021/09/03 04:23:04;;;;;;;6.38;2.72;;;17.80;63.50;;;;;;5053545;28;20029;-74
2021/09/03 04:25:30;;;;;;;4.28;2.50;;;18.10;62.40;;;;;;5037620;28;20112;-73
2021/09/03 04:27:56;;;;;;;5.00;2.10;;;18.50;62.20;;;;;;5034333;28;20057;-72
2021/09/03 04:30:22;;;;;;;4.20;1.92;;;18.80;60.70;;;;;;5033710;28;20041;-71
2021/09/03 04:32:47;;;;;;;5.28;2.28;;;19.10;59.90;;;;;;5032934;28;20029;-71
2021/09/03 04:35:13;;;;;;;6.88;2.67;;;19.40;59.10;;;;;;5031713;28;20134;-71
2021/09/03 04:37:47;;;;;;;2.92;1.80;;;19.60;58.70;;;;;;5033802;28;20071;-71
2021/09/03 04:40:14;;;;;;;3.10;1.88;;;19.80;57.70;;;;;;5032598;28;20472;-71
2021/09/03 04:42:40;;;;;;;7.45;2.33;;;20.20;57.20;;;;;;5037153;28;20496;-72
2021/09/03 04:45:06;;;;;;;4.47;1.85;;;20.40;56.50;;;;;;5045597;28;20057;-71
2021/09/03 04:47:33;;;;;;;6.22;2.00;;;20.60;55.80;;;;;;5033120;28;20025;-72
2021/09/03 04:49:58;;;;;;;4.97;2.03;;;20.80;55.50;;;;;;5045695;28;20458;-72
2021/09/03 04:52:24;;;;;;;5.00;2.97;;;21.10;54.90;;;;;;5052857;28;20119;-73
2021/09/03 04:54:50;;;;;;;7.60;2.85;;;21.30;54.20;;;;;;5052903;28;20021;-71
2021/09/03 04:57:15;;;;;;;6.93;3.13;;;21.60;53.70;;;;;;5042099;28;20036;-72
2021/09/03 04:59:41;;;;;;;6.75;3.03;;;21.80;53.20;;;;;;5031742;28;20080;-72
2021/09/03 05:02:07;;;;;;;7.72;4.18;;;22.00;52.70;;;;;;5033141;28;20022;-71
2021/09/03 05:04:32;;;;;;;6.35;3.05;;;22.10;52.60;;;;;;5033304;28;20052;-71
2021/09/03 05:06:58;;;;;;;5.80;2.92;;;22.10;52.40;;;;;;5033342;28;20100;-71
2021/09/03 05:09:24;;;;;;;5.72;2.70;;;22.20;52.10;;;;;;5033264;28;20030;-72
2021/09/03 05:11:49;;;;;;;6.70;2.33;;;22.40;51.80;;;;;;5033644;28;20057;-71
2021/09/03 05:14:15;;;;;;;4.43;2.15;;;22.80;51.00;;;;;;5033985;28;20073;-72
2021/09/03 05:16:41;;;;;;;4.50;2.05;;;23.10;50.50;;;;;;5052386;28;20055;-78
2021/09/03 05:19:07;;;;;;;3.83;1.60;;;23.20;50.10;;;;;;5053485;28;20025;-77
2021/09/03 05:21:33;;;;;;;3.03;1.77;;;23.50;49.40;;;;;;5052436;28;20074;-80
2021/09/03 05:23:59;;;;;;;6.47;1.60;;;23.80;48.90;;;;;;5054906;28;20101;-78
2021/09/03 05:26:25;;;;;;;5.32;2.10;;;23.80;48.60;;;;;;5052185;28;20036;-73
2021/09/03 05:28:51;;;;;;;5.63;2.00;;;23.90;48.60;;;;;;5034162;28;20383;-74
2021/09/03 05:31:16;;;;;;;5.28;2.58;;;24.20;48.00;;;;;;5033588;28;20021;-73
2021/09/03 05:33:42;;;;;;;3.53;1.98;;;24.20;47.90;;;;;;5033399;28;20057;-74
2021/09/03 05:36:08;;;;;;;3.63;1.98;;;24.50;47.70;;;;;;5032871;28;20488;-75
2021/09/03 05:38:33;;;;;;;2.67;1.65;;;24.80;47.10;;;;;;5035813;28;20418;-75
2021/09/03 05:40:59;;;;;;;3.88;1.83;;;24.80;46.70;;;;;;5032418;28;20029;-76
2021/09/03 05:43:25;;;;;;;5.70;1.73;;;24.90;46.60;;;;;;5030861;28;20137;-76
2021/09/03 05:45:50;;;;;;;3.92;1.60;;;25.20;46.10;;;;;;5049274;28;20025;-75
2021/09/03 05:48:16;;;;;;;7.05;1.58;;;25.30;45.80;;;;;;5061481;28;20050;-78
2021/09/03 05:50:42;;;;;;;3.17;1.60;;;25.60;45.50;;;;;;5063547;28;20025;-79
2021/09/03 05:53:08;;;;;;;3.08;1.42;;;25.70;45.00;;;;;;5038305;28;20048;-77
2021/09/03 05:55:33;;;;;;;6.40;1.75;;;25.90;44.80;;;;;;5035240;28;20036;-76
2021/09/03 05:57:59;;;;;;;7.50;1.80;;;26.10;45.00;;;;;;5056291;28;20022;-76
2021/09/03 06:00:25;;;;;;;3.33;1.50;;;26.50;44.40;;;;;;5076164;28;20398;-76
2021/09/03 06:02:51;;;;;;;4.18;1.35;;;26.70;43.60;;;;;;5076175;28;20020;-75
2021/09/03 06:05:17;;;;;;;4.65;1.30;;;26.90;43.10;;;;;;5068568;28;20045;-78
2021/09/03 06:07:42;;;;;;;2.42;1.23;;;26.70;42.90;;;;;;5064001;28;20059;-75
2021/09/03 06:10:10;;;;;;;2.47;1.30;;;26.30;42.90;;;;;;5076232;28;20036;-75
2021/09/03 06:12:36;;;;;;;3.42;1.10;;;26.20;43.20;;;;;;5074493;28;20041;-76
2021/09/03 06:15:05;;;;;;;1.42;1.00;;;26.00;43.00;;;;;;5056044;28;20112;-75
2021/09/03 06:17:31;;;;;;;3.17;1.20;;;26.20;43.90;;;;;;5059365;28;20041;-75
2021/09/03 06:19:57;;;;;;;2.95;1.17;;;26.40;42.70;;;;;;5064741;28;20029;-75
2021/09/03 06:22:23;;;;;;;2.78;1.45;;;26.70;42.60;;;;;;5055164;28;20028;-75
2021/09/03 06:24:48;;;;;;;3.42;1.20;;;27.20;42.30;;;;;;5056085;28;20021;-75
2021/09/03 06:27:14;;;;;;;3.13;1.40;;;27.20;41.60;;;;;;5055834;28;20032;-74
2021/09/03 06:29:43;;;;;;;4.05;1.50;;;27.40;41.50;;;;;;5052750;28;20025;-79
2021/09/03 06:32:21;;;;;;;3.17;1.30;;;27.30;40.80;;;;;;5034715;28;20472;-76
2021/09/03 06:34:50;;;;;;;2.20;1.20;;;27.40;40.70;;;;;;5054769;28;20064;-81
2021/09/03 06:37:16;;;;;;;5.25;1.10;;;27.80;40.60;;;;;;5055053;28;20516;-74
2021/09/03 06:39:43;;;;;;;2.42;1.00;;;28.40;40.00;;;;;;5054419;28;20033;-76
2021/09/03 06:42:10;;;;;;;2.83;1.20;;;28.60;39.10;;;;;;5053505;28;20101;-76
2021/09/03 06:44:36;;;;;;;3.55;1.10;;;28.70;39.00;;;;;;5054417;28;20119;-79
2021/09/03 06:47:04;;;;;;;2.08;1.00;;;28.90;38.90;;;;;;5051187;28;20432;-71
2021/09/03 06:49:30;;;;;;;2.28;1.13;;;29.20;38.60;;;;;;5034744;28;20116;-71
2021/09/03 06:51:56;;;;;;;1.98;1.00;;;29.40;38.20;;;;;;5035068;28;20232;-70
2021/09/03 06:54:22;;;;;;;2.05;1.10;;;29.40;38.10;;;;;;5044852;28;20465;-72
2021/09/03 06:56:48;;;;;;;3.92;1.10;;;29.20;38.50;;;;;;5053371;28;20093;-70
2021/09/03 06:59:14;;;;;;;1.52;0.90;;;29.00;38.30;;;;;;5060122;28;20021;-69
2021/09/03 07:01:39;;;;;;;2.35;1.02;;;29.30;38.00;;;;;;5066516;28;20032;-77
2021/09/03 07:04:05;;;;;;;3.90;1.20;;;29.60;37.70;;;;;;5069114;28;20029;-81
2021/09/03 07:06:31;;;;;;;3.28;1.20;;;30.00;37.50;;;;;;5086135;28;20063;-81
2021/09/03 07:08:57;;;;;;;2.03;1.10;;;30.20;37.50;;;;;;5092896;28;20029;-79
2021/09/03 07:11:24;;;;;;;3.20;0.90;;;30.30;37.00;;;;;;5082928;28;20458;-82
2021/09/03 07:13:50;;;;;;;3.65;1.10;;;30.50;36.60;;;;;;5074920;28;20087;-81
2021/09/03 07:16:16;;;;;;;2.42;0.90;;;30.70;36.40;;;;;;5074961;28;20036;-81
2021/09/03 07:18:41;;;;;;;2.35;0.90;;;30.70;36.50;;;;;;5042510;28;20108;-79
2021/09/03 07:21:08;;;;;;;4.32;1.20;;;30.70;36.20;;;;;;5049643;28;20104;-81
2021/09/03 07:23:34;;;;;;;3.35;1.23;;;30.80;35.90;;;;;;5053492;28;20033;-83
2021/09/03 07:26:01;;;;;;;2.08;0.93;;;30.80;35.60;;;;;;5053578;28;20235;-84
2021/09/03 07:28:27;;;;;;;1.27;0.70;;;30.60;35.60;;;;;;5053004;28;20032;-83
2021/09/03 07:30:53;;;;;;;3.03;0.70;;;30.20;35.60;;;;;;5053237;28;20123;-84
2021/09/03 07:33:19;;;;;;;1.25;1.00;;;30.00;36.00;;;;;;5054127;28;20024;-84
2021/09/03 07:35:45;;;;;;;3.03;0.93;;;30.20;36.20;;;;;;5054541;28;20032;-82
2021/09/03 07:38:12;;;;;;;3.83;0.90;;;30.30;36.00;;;;;;5054591;28;20033;-84
2021/09/03 07:40:38;;;;;;;2.25;0.75;;;30.60;36.00;;;;;;5053437;28;20025;-84
2021/09/03 07:43:07;;;;;;;2.28;0.80;;;31.00;35.30;;;;;;5053323;28;20021;-85
2021/09/03 07:45:34;;;;;;;1.00;0.70;;;31.10;34.90;;;;;;5053713;28;20025;-84
2021/09/03 07:48:00;;;;;;;1.88;0.95;;;31.10;34.60;;;;;;5053233;28;20028;-84
2021/09/03 07:50:26;;;;;;;4.70;1.02;;;31.00;34.70;;;;;;5054510;28;20021;-83
2021/09/03 07:52:52;;;;;;;3.47;0.68;;;31.10;34.90;;;;;;5054294;28;20040;-83
2021/09/03 07:55:18;;;;;;;2.67;0.70;;;30.90;34.20;;;;;;5054412;28;20353;-84
2021/09/03 07:57:44;;;;;;;2.63;0.88;;;30.80;34.30;;;;;;5053194;28;20059;-83
2021/09/03 08:00:10;;;;;;;2.75;1.02;;;30.50;34.30;;;;;;5053882;28;20112;-83
2021/09/03 08:02:36;;;;;;;2.30;1.05;;;30.60;34.50;;;;;;5052921;28;20075;-84
2021/09/03 08:05:04;;;;;;;2.28;0.80;;;30.70;34.10;;;;;;5054166;28;20057;-84
2021/09/03 08:07:30;;;;;;;2.22;0.98;;;30.60;34.10;;;;;;5053905;28;20121;-84
2021/09/03 08:09:56;;;;;;;3.30;0.68;;;30.80;34.40;;;;;;5052960;28;20040;-83
2021/09/03 08:12:23;;;;;;;1.48;0.65;;;30.90;34.00;;;;;;5053714;28;20036;-83
2021/09/03 08:14:49;;;;;;;3.28;0.85;;;31.20;33.60;;;;;;5052481;28;20087;-83
2021/09/03 08:17:15;;;;;;;2.00;0.70;;;31.30;33.20;;;;;;5052604;28;20056;-84
2021/09/03 08:19:41;;;;;;;2.78;0.80;;;31.20;33.50;;;;;;5054018;28;20103;-83
2021/09/03 08:22:07;;;;;;;2.63;0.90;;;31.20;33.40;;;;;;5053703;28;20028;-82
2021/09/03 08:24:33;;;;;;;1.20;0.60;;;31.10;33.40;;;;;;5053769;28;20021;-83
2021/09/03 08:26:58;;;;;;;1.67;0.65;;;31.20;33.40;;;;;;5054052;28;20057;-83
2021/09/03 08:29:24;;;;;;;3.83;0.80;;;31.00;33.70;;;;;;5053971;28;20040;-87
2021/09/03 08:31:50;;;;;;;2.53;0.70;;;30.40;33.40;;;;;;5053749;28;20386;-83
2021/09/03 08:34:16;;;;;;;1.35;0.55;;;30.40;33.60;;;;;;5052848;28;20033;-82
2021/09/03 08:36:42;;;;;;;2.60;0.60;;;30.40;33.70;;;;;;5053035;28;20029;-81
2021/09/03 08:39:08;;;;;;;3.30;1.02;;;30.50;33.60;;;;;;5054616;28;20356;-81
2021/09/03 08:41:36;;;;;;;1.48;0.82;;;30.70;33.80;;;;;;5052718;28;20047;-81
2021/09/03 08:44:01;;;;;;;1.00;0.77;;;30.80;33.70;;;;;;5038167;28;20060;-82
2021/09/03 08:46:28;;;;;;;1.38;0.70;;;31.10;33.80;;;;;;5035178;28;20052;-83
2021/09/03 08:48:53;;;;;;;1.38;0.75;;;30.90;33.70;;;;;;5034805;28;20053;-82
2021/09/03 08:51:20;;;;;;;2.42;0.80;;;30.40;33.50;;;;;;5033833;28;20029;-81
2021/09/03 08:53:46;;;;;;;2.05;0.60;;;30.30;33.80;;;;;;5033289;28;20398;-80
2021/09/03 08:56:13;;;;;;;2.10;1.00;;;29.60;33.30;;;;;;5032106;28;20049;-81
2021/09/03 08:58:39;;;;;;;2.33;0.70;;;29.40;34.00;;;;;;5032430;28;20029;-81
2021/09/03 09:01:15;;;;;;;0.95;0.50;;;29.70;34.20;;;;;;5032658;28;20087;-82
2021/09/03 09:03:45;;;;;;;1.00;0.68;;;30.10;33.60;;;;;;5033626;28;20021;-87
2021/09/03 09:06:21;;;;;;;3.45;0.75;;;30.50;33.70;;;;;;5032317;28;20131;-82
2021/09/03 09:08:55;;;;;;;3.25;0.77;;;30.60;33.80;;;;;;5032050;28;20486;-83
2021/09/03 09:11:25;;;;;;;2.22;1.38;;;31.10;33.30;;;;;;5033928;28;20032;-83
2021/09/03 09:13:50;;;;;;;3.45;1.35;;;31.40;33.00;;;;;;5033983;28;20124;-82
2021/09/03 09:16:19;;;;;;;3.17;0.70;;;31.60;32.80;;;;;;5033504;28;20170;-82
2021/09/03 09:18:52;;;;;;;5.40;1.85;;;31.60;32.80;;;;;;5033135;28;20113;-81
2021/09/03 09:21:29;;;;;;;2.47;1.00;;;31.20;33.10;;;;;;5037398;28;20487;-82
2021/09/03 09:24:07;;;;;;;1.33;0.73;;;30.80;33.70;;;;;;5036391;28;20033;-82
2021/09/03 09:26:44;;;;;;;2.55;0.90;;;30.50;33.40;;;;;;5036360;28;20405;-82
2021/09/03 09:29:26;;;;;;;1.15;0.70;;;30.60;34.10;;;;;;5036888;28;20052;-81
2021/09/03 09:32:06;;;;;;;0.73;0.60;;;30.90;33.40;;;;;;5037067;28;20475;-83
2021/09/03 09:34:39;;;;;;;1.42;0.73;;;31.20;32.90;;;;;;5036131;28;20068;-83
2021/09/03 09:37:08;;;;;;;3.35;1.38;;;31.50;32.50;;;;;;5035582;28;20464;-81
2021/09/03 09:40:01;;;;;;;1.48;0.80;;;31.40;32.40;;;;;;5035750;28;20360;-81
2021/09/03 09:42:30;;;;;;;1.30;0.60;;;30.90;32.90;;;;;;5037056;28;20033;-81
2021/09/03 09:45:07;;;;;;;5.25;0.93;;;31.00;32.80;;;;;;5036733;28;20037;-81
2021/09/03 09:47:33;;;;;;;2.55;0.95;;;31.00;33.00;;;;;;5035442;28;20028;-82
2021/09/03 09:50:26;;;;;;;4.38;0.90;;;31.10;33.30;;;;;;5035506;28;20029;-81
2021/09/03 09:52:52;;;;;;;0.80;0.60;;;31.20;33.10;;;;;;5035552;28;20036;-82
2021/09/03 09:55:18;;;;;;;2.25;0.63;;;31.40;32.30;;;;;;5035430;28;20025;-81
2021/09/03 09:57:48;;;;;;;1.48;0.68;;;31.60;31.90;;;;;;5036876;28;20041;-81
2021/09/03 10:00:14;;;;;;;7.18;0.88;;;31.50;32.00;;;;;;5035230;28;20030;-79
2021/09/03 10:02:43;;;;;;;2.08;0.63;;;31.10;32.00;;;;;;5036202;28;20179;-79
2021/09/03 10:05:10;;;;;;;2.30;0.80;;;30.90;32.30;;;;;;5036583;28;20120;-78
2021/09/03 10:07:39;;;;;;;0.80;0.60;;;30.30;32.50;;;;;;5036389;28;20029;-80
2021/09/03 10:10:05;;;;;;;3.42;1.67;;;30.00;33.20;;;;;;5035449;28;20035;-80
2021/09/03 10:12:31;;;;;;;1.15;0.63;;;29.90;34.10;;;;;;5035866;28;20121;-79
2021/09/03 10:14:57;;;;;;;1.45;0.70;;;30.10;33.80;;;;;;5055133;28;20064;-81
2021/09/03 10:17:23;;;;;;;1.00;0.90;;;30.30;33.10;;;;;;5056575;28;20093;-80
2021/09/03 10:19:52;;;;;;;1.13;0.60;;;29.90;32.70;;;;;;5055249;28;20459;-80
2021/09/03 10:22:21;;;;;;;4.28;0.90;;;29.80;34.10;;;;;;5058096;28;20060;-80
2021/09/03 10:25:03;;;;;;;1.80;0.80;;;29.90;34.60;;;;;;5058696;28;20043;-80
2021/09/03 10:27:29;;;;;;;5.20;0.70;;;29.70;34.20;;;;;;5056776;28;20074;-80
2021/09/03 10:30:14;;;;;;;1.10;0.60;;;30.10;33.90;;;;;;5056237;28;20017;-79
2021/09/03 10:32:42;;;;;;;3.08;0.77;;;30.40;33.20;;;;;;5053907;28;20123;-79
2021/09/03 10:35:21;;;;;;;2.45;0.90;;;29.80;33.00;;;;;;5054711;28;20036;-80
2021/09/03 10:37:49;;;;;;;7.55;3.08;;;29.00;34.00;;;;;;5054439;28;20470;-79
2021/09/03 10:40:21;;;;;;;1.98;0.70;;;29.20;34.20;;;;;;5054440;28;20033;-79
2021/09/03 10:42:51;;;;;;;1.70;0.73;;;29.90;34.00;;;;;;5053421;28;20056;-80
2021/09/03 10:45:27;;;;;;;1.00;0.60;;;30.10;33.90;;;;;;5054370;28;20060;-79
2021/09/03 10:48:03;;;;;;;1.98;0.98;;;29.50;33.70;;;;;;5054499;28;20025;-79
2021/09/03 10:50:34;;;;;;;2.10;0.80;;;29.20;33.90;;;;;;5054228;28;20021;-79
2021/09/03 10:53:06;;;;;;;2.53;0.95;;;29.10;34.10;;;;;;5053823;28;20029;-83
2021/09/03 10:56:05;;;;;;;1.70;0.70;;;28.40;34.30;;;;;;5055467;28;20069;-80
2021/09/03 10:58:41;;;;;;;2.25;0.80;;;27.30;35.20;;;;;;5054367;28;20521;-79
2021/09/03 11:01:15;;;;;;;1.10;0.57;;;26.80;36.30;;;;;;5055151;28;20028;-79
2021/09/03 11:03:45;;;;;;;1.58;0.70;;;26.50;36.50;;;;;;5055942;28;20478;-79
2021/09/03 11:06:15;;;;;;;1.85;0.90;;;26.80;36.80;;;;;;5053571;28;20131;-79
2021/09/03 11:08:43;;;;;;;1.85;0.80;;;27.40;36.70;;;;;;5055346;28;20060;-80
2021/09/03 11:11:25;;;;;;;3.17;0.88;;;28.10;36.30;;;;;;5055268;28;20094;-80
2021/09/03 11:14:25;;;;;;;1.55;0.70;;;28.40;35.40;;;;;;5053225;28;20032;-79
2021/09/03 11:17:09;;;;;;;2.22;0.77;;;28.00;35.00;;;;;;5054118;28;20040;-79
2021/09/03 11:19:36;;;;;;;1.85;0.70;;;27.40;35.60;;;;;;5053391;28;20036;-79
2021/09/03 11:22:23;;;;;;;1.70;0.85;;;27.60;35.60;;;;;;5054612;28;20017;-75
2021/09/03 11:24:56;;;;;;;3.08;0.90;;;27.30;35.40;;;;;;5053446;28;20035;-79
2021/09/03 11:27:26;;;;;;;1.58;0.80;;;26.70;36.10;;;;;;5054021;28;20033;-78
2021/09/03 11:29:57;;;;;;;3.72;0.90;;;26.90;36.40;;;;;;5053488;28;20120;-78
2021/09/03 11:32:32;;;;;;;2.53;0.80;;;27.60;35.80;;;;;;5054571;28;20032;-75
2021/09/03 11:35:02;;;;;;;3.83;0.88;;;28.20;35.40;;;;;;5053923;28;20025;-77
2021/09/03 11:37:45;;;;;;;2.33;0.73;;;28.80;34.70;;;;;;5053320;28;20025;-79
2021/09/03 11:40:21;;;;;;;3.28;0.90;;;28.70;34.30;;;;;;5053508;28;20032;-79
2021/09/03 11:42:58;;;;;;;2.67;1.00;;;28.00;35.00;;;;;;5052223;28;20031;-78
2021/09/03 11:45:32;;;;;;;1.90;0.73;;;28.00;35.40;;;;;;5053523;28;20033;-82
2021/09/03 11:48:04;;;;;;;1.60;0.75;;;28.20;34.90;;;;;;5053527;28;20024;-78
2021/09/03 11:50:42;;;;;;;3.20;0.88;;;28.10;35.00;;;;;;5053070;28;20032;-78
2021/09/03 11:53:16;;;;;;;2.28;0.65;;;27.70;35.30;;;;;;5054440;28;20105;-78
2021/09/03 11:55:44;;;;;;;0.93;0.60;;;27.20;36.30;;;;;;5054037;28;20033;-81
2021/09/03 11:58:12;;;;;;;2.47;0.80;;;26.80;35.80;;;;;;5056983;28;20029;-78
2021/09/03 12:00:58;;;;;;;1.48;0.80;;;26.30;36.30;;;;;;5060914;28;20032;-77
2021/09/03 12:03:39;;;;;;;1.42;0.85;;;26.00;37.00;;;;;;5056709;28;20490;-75
2021/09/03 12:06:11;;;;;;;2.22;0.80;;;25.70;37.20;;;;;;5056256;28;20400;-77
2021/09/03 12:08:37;;;;;;;2.47;1.00;;;25.40;37.40;;;;;;5052836;28;20040;-76
2021/09/03 12:11:17;;;;;;;1.38;0.80;;;25.10;37.80;;;;;;5054078;28;20367;-77
2021/09/03 12:13:44;;;;;;;2.38;0.90;;;25.10;38.30;;;;;;5037933;28;20045;-78
2021/09/03 12:16:16;;;;;;;4.20;0.80;;;24.90;38.30;;;;;;5032691;28;20029;-78
2021/09/03 12:18:45;;;;;;;1.20;0.77;;;24.80;38.60;;;;;;5032582;28;20029;-74
2021/09/03 12:21:10;;;;;;;2.10;0.80;;;24.60;39.10;;;;;;5040703;28;20064;-77
2021/09/03 12:23:48;;;;;;;1.48;0.90;;;24.20;39.50;;;;;;5052707;28;20059;-78
2021/09/03 12:26:17;;;;;;;2.92;0.90;;;23.70;40.10;;;;;;5052675;28;20029;-77
2021/09/03 12:28:48;;;;;;;2.80;0.90;;;23.40;40.50;;;;;;5052187;28;20025;-73
2021/09/03 12:31:19;;;;;;;4.65;1.05;;;23.30;40.90;;;;;;5053521;28;20021;-77
2021/09/03 12:33:49;;;;;;;2.97;0.90;;;23.30;40.70;;;;;;5053720;28;20036;-77
2021/09/03 12:36:25;;;;;;;1.77;1.05;;;23.30;41.20;;;;;;5053452;28;20028;-77
2021/09/03 12:38:56;;;;;;;4.03;1.17;;;23.20;41.40;;;;;;5053678;28;20048;-76
2021/09/03 12:41:29;;;;;;;4.25;1.00;;;23.10;41.50;;;;;;5052052;28;20029;-77
2021/09/03 12:44:10;;;;;;;2.47;0.88;;;23.00;41.60;;;;;;5040526;28;20084;-77
2021/09/03 12:46:37;;;;;;;1.70;0.70;;;23.00;41.90;;;;;;5033991;28;20087;-76
2021/09/03 12:49:12;;;;;;;2.35;1.02;;;23.00;41.90;;;;;;5033611;28;20026;-77
2021/09/03 12:51:40;;;;;;;2.10;0.70;;;22.90;42.20;;;;;;5033508;28;20547;-77